sensor_id;sensor_type;location;lat;lon;timestamp;pressure;altitude;pressure_sealevel;temperature;humidity
8890;BME280;4481;43.406;24.454;2022-10-22T00:01:18;78409.69;;;-144.09;94.25
8890;BME280;4481;43.406;24.454;2022-10-22T00:03:45;78422.25;;;-144.09;94.51
8890;BME280;4481;43.406;24.454;2022-10-22T00:06:11;78415.97;;;-144.09;94.71
8890;BME280;4481;43.406;24.454;2022-10-22T00:08:37;78420.16;;;-144.09;94.96
8890;BME280;4481;43.406;24.454;2022-10-22T00:11:08;78413.88;;;-144.09;94.95
8890;BME280;4481;43.406;24.454;2022-10-22T00:13:34;78407.59;;;-144.09;94.63
8890;BME280;4481;43.406;24.454;2022-10-22T00:16:00;78392.97;;;-144.09;94.56
8890;BME280;4481;43.406;24.454;2022-10-22T00:18:26;78415.97;;;-144.09;94.97
8890;BME280;4481;43.406;24.454;2022-10-22T00:20:53;78418.06;;;-144.09;95.11
8890;BME280;4481;43.406;24.454;2022-10-22T00:23:19;78424.31;;;-144.09;95.61
8890;BME280;4481;43.406;24.454;2022-10-22T00:25:45;78424.31;;;-144.09;95.68
8890;BME280;4481;43.406;24.454;2022-10-22T00:28:11;78415.97;;;-144.09;95.49
8890;BME280;4481;43.406;24.454;2022-10-22T00:30:38;78420.16;;;-144.09;96.24
8890;BME280;4481;43.406;24.454;2022-10-22T00:33:04;78397.16;;;-144.09;96.04
8890;BME280;4481;43.406;24.454;2022-10-22T00:35:30;78399.25;;;-144.09;96.82
8890;BME280;4481;43.406;24.454;2022-10-22T00:37:57;78395.06;;;-144.09;97.14
8890;BME280;4481;43.406;24.454;2022-10-22T00:40:23;78380.44;;;-144.09;97.05
8890;BME280;4481;43.406;24.454;2022-10-22T00:42:49;78384.59;;;-144.09;97.43
8890;BME280;4481;43.406;24.454;2022-10-22T00:45:19;78390.88;;;-144.09;97.61
8890;BME280;4481;43.406;24.454;2022-10-22T00:47:48;78388.78;;;-144.09;97.58
8890;BME280;4481;43.406;24.454;2022-10-22T00:50:19;78388.78;;;-144.09;97.41
8890;BME280;4481;43.406;24.454;2022-10-22T00:52:47;78390.88;;;-144.09;97.46
8890;BME280;4481;43.406;24.454;2022-10-22T00:55:15;78386.69;;;-144.09;97.56
8890;BME280;4481;43.406;24.454;2022-10-22T00:57:42;78369.97;;;-144.09;97.53
8890;BME280;4481;43.406;24.454;2022-10-22T01:00:09;78367.88;;;-144.09;97.48
8890;BME280;4481;43.406;24.454;2022-10-22T01:02:36;78357.44;;;-144.09;97.17
8890;BME280;4481;43.406;24.454;2022-10-22T01:05:02;78355.34;;;-144.09;97.24
8890;BME280;4481;43.406;24.454;2022-10-22T01:07:29;78384.59;;;-144.09;97.56
8890;BME280;4481;43.406;24.454;2022-10-22T01:10:02;78386.69;;;-144.09;98.08
8890;BME280;4481;43.406;24.454;2022-10-22T01:12:42;78376.25;;;-144.09;98.01
8890;BME280;4481;43.406;24.454;2022-10-22T01:15:16;78367.88;;;-144.09;97.59
8890;BME280;4481;43.406;24.454;2022-10-22T01:17:52;78357.44;;;-144.09;97.51
8890;BME280;4481;43.406;24.454;2022-10-22T01:20:50;78353.25;;;-144.09;97.48
8890;BME280;4481;43.406;24.454;2022-10-22T01:23:29;78336.53;;;-144.09;97.77
8890;BME280;4481;43.406;24.454;2022-10-22T01:26:04;78344.88;;;-144.09;97.79
8890;BME280;4481;43.406;24.454;2022-10-22T01:28:52;78332.34;;;-144.09;97.54
8890;BME280;4481;43.406;24.454;2022-10-22T01:31:22;78340.69;;;-144.09;97.56
8890;BME280;4481;43.406;24.454;2022-10-22T01:33:50;78326.06;;;-144.09;97.25
8890;BME280;4481;43.406;24.454;2022-10-22T01:36:18;78323.97;;;-144.09;97.29
8890;BME280;4481;43.406;24.454;2022-10-22T01:38:46;78321.88;;;-144.09;97.26
8890;BME280;4481;43.406;24.454;2022-10-22T01:41:14;78319.78;;;-144.09;96.99
8890;BME280;4481;43.406;24.454;2022-10-22T01:43:40;78326.06;;;-144.09;97.10
8890;BME280;4481;43.406;24.454;2022-10-22T01:46:09;78340.69;;;-144.09;97.54
8890;BME280;4481;43.406;24.454;2022-10-22T01:48:48;78351.16;;;-144.09;97.51
8890;BME280;4481;43.406;24.454;2022-10-22T01:51:26;78340.69;;;-144.09;97.23
8890;BME280;4481;43.406;24.454;2022-10-22T01:53:59;78351.16;;;-144.09;97.64
8890;BME280;4481;43.406;24.454;2022-10-22T01:56:42;78355.34;;;-144.09;97.71
8890;BME280;4481;43.406;24.454;2022-10-22T01:59:16;78346.97;;;-144.09;97.29
8890;BME280;4481;43.406;24.454;2022-10-22T02:01:54;78336.53;;;-144.09;96.98
8890;BME280;4481;43.406;24.454;2022-10-22T02:04:27;78346.97;;;-144.09;97.31
8890;BME280;4481;43.406;24.454;2022-10-22T02:06:57;78349.06;;;-144.09;97.52
8890;BME280;4481;43.406;24.454;2022-10-22T02:09:26;78357.44;;;-144.09;97.90
8890;BME280;4481;43.406;24.454;2022-10-22T02:11:54;78344.88;;;-144.09;97.77
8890;BME280;4481;43.406;24.454;2022-10-22T02:14:22;78330.25;;;-144.09;97.33
8890;BME280;4481;43.406;24.454;2022-10-22T02:16:51;78353.25;;;-144.09;98.25
8890;BME280;4481;43.406;24.454;2022-10-22T02:19:22;78359.53;;;-144.09;98.35
8890;BME280;4481;43.406;24.454;2022-10-22T02:21:49;78363.69;;;-144.09;98.43
8890;BME280;4481;43.406;24.454;2022-10-22T02:24:16;78361.59;;;-144.09;98.31
8890;BME280;4481;43.406;24.454;2022-10-22T02:26:45;78334.44;;;-144.09;97.61
8890;BME280;4481;43.406;24.454;2022-10-22T02:29:21;78342.78;;;-144.09;97.58
8890;BME280;4481;43.406;24.454;2022-10-22T02:31:52;78349.06;;;-144.09;98.10
8890;BME280;4481;43.406;24.454;2022-10-22T02:34:24;78349.06;;;-144.09;97.90
8890;BME280;4481;43.406;24.454;2022-10-22T02:36:53;78357.44;;;-144.09;98.23
8890;BME280;4481;43.406;24.454;2022-10-22T02:39:20;78349.06;;;-144.09;98.03
8890;BME280;4481;43.406;24.454;2022-10-22T02:41:47;78357.44;;;-144.09;98.59
8890;BME280;4481;43.406;24.454;2022-10-22T02:44:13;78355.34;;;-144.09;98.28
8890;BME280;4481;43.406;24.454;2022-10-22T02:46:41;78340.69;;;-144.09;97.71
8890;BME280;4481;43.406;24.454;2022-10-22T02:49:08;78349.06;;;-144.09;98.08
8890;BME280;4481;43.406;24.454;2022-10-22T02:51:34;78336.53;;;-144.09;97.95
8890;BME280;4481;43.406;24.454;2022-10-22T02:54:01;78336.53;;;-144.09;97.80
8890;BME280;4481;43.406;24.454;2022-10-22T02:56:27;78344.88;;;-144.09;98.17
8890;BME280;4481;43.406;24.454;2022-10-22T02:58:53;78344.88;;;-144.09;98.00
8890;BME280;4481;43.406;24.454;2022-10-22T03:01:19;78353.25;;;-144.09;98.05
8890;BME280;4481;43.406;24.454;2022-10-22T03:03:45;78351.16;;;-144.09;98.07
8890;BME280;4481;43.406;24.454;2022-10-22T03:06:12;78351.16;;;-144.09;98.03
8890;BME280;4481;43.406;24.454;2022-10-22T03:08:39;78330.25;;;-144.09;97.87
8890;BME280;4481;43.406;24.454;2022-10-22T03:11:06;78340.69;;;-144.09;97.58
8890;BME280;4481;43.406;24.454;2022-10-22T03:13:32;78342.78;;;-144.09;97.74
8890;BME280;4481;43.406;24.454;2022-10-22T03:15:58;78326.06;;;-144.09;97.11
8890;BME280;4481;43.406;24.454;2022-10-22T03:18:24;78332.34;;;-144.09;97.35
8890;BME280;4481;43.406;24.454;2022-10-22T03:20:59;78328.16;;;-144.09;97.72
8890;BME280;4481;43.406;24.454;2022-10-22T03:23:27;78317.72;;;-144.09;97.26
8890;BME280;4481;43.406;24.454;2022-10-22T03:25:53;78332.34;;;-144.09;97.56
8890;BME280;4481;43.406;24.454;2022-10-22T03:28:19;78317.72;;;-144.09;97.08
8890;BME280;4481;43.406;24.454;2022-10-22T03:30:45;78307.25;;;-144.09;97.03
8890;BME280;4481;43.406;24.454;2022-10-22T03:33:11;78323.97;;;-144.09;97.15
8890;BME280;4481;43.406;24.454;2022-10-22T03:35:41;78323.97;;;-144.09;97.17
8890;BME280;4481;43.406;24.454;2022-10-22T03:38:08;78319.78;;;-144.09;97.02
8890;BME280;4481;43.406;24.454;2022-10-22T03:40:36;78305.16;;;-144.09;96.63
8890;BME280;4481;43.406;24.454;2022-10-22T03:43:02;78290.53;;;-144.09;96.39
8890;BME280;4481;43.406;24.454;2022-10-22T03:45:28;78303.06;;;-144.09;96.30
8890;BME280;4481;43.406;24.454;2022-10-22T03:47:54;78296.81;;;-144.09;96.56
8890;BME280;4481;43.406;24.454;2022-10-22T03:50:21;78277.97;;;-144.09;96.43
8890;BME280;4481;43.406;24.454;2022-10-22T03:52:47;78290.53;;;-144.09;96.58
8890;BME280;4481;43.406;24.454;2022-10-22T03:55:13;78298.88;;;-144.09;96.32
8890;BME280;4481;43.406;24.454;2022-10-22T03:57:40;78284.25;;;-144.09;96.63
8890;BME280;4481;43.406;24.454;2022-10-22T04:00:07;78282.16;;;-144.09;96.37
8890;BME280;4481;43.406;24.454;2022-10-22T04:02:33;78290.53;;;-144.09;96.43
8890;BME280;4481;43.406;24.454;2022-10-22T04:04:59;78277.97;;;-144.09;96.29
8890;BME280;4481;43.406;24.454;2022-10-22T04:07:26;78273.81;;;-144.09;95.97
8890;BME280;4481;43.406;24.454;2022-10-22T04:09:52;78277.97;;;-144.09;96.48
8890;BME280;4481;43.406;24.454;2022-10-22T04:12:18;78284.25;;;-144.09;96.31
8890;BME280;4481;43.406;24.454;2022-10-22T04:14:45;78282.16;;;-144.09;96.96
8890;BME280;4481;43.406;24.454;2022-10-22T04:17:11;78267.53;;;-144.09;97.18
8890;BME280;4481;43.406;24.454;2022-10-22T04:19:37;78265.44;;;-144.09;96.98
8890;BME280;4481;43.406;24.454;2022-10-22T04:22:03;78255.00;;;-144.09;96.79
8890;BME280;4481;43.406;24.454;2022-10-22T04:24:30;78244.53;;;-144.09;96.59
8890;BME280;4481;43.406;24.454;2022-10-22T04:26:56;78238.25;;;-144.09;96.37
8890;BME280;4481;43.406;24.454;2022-10-22T04:29:23;78227.81;;;-144.09;96.53
8890;BME280;4481;43.406;24.454;2022-10-22T04:31:49;78229.91;;;-144.09;96.20
8890;BME280;4481;43.406;24.454;2022-10-22T04:34:16;78234.09;;;-144.09;96.49
8890;BME280;4481;43.406;24.454;2022-10-22T04:36:42;78225.72;;;-144.09;95.99
8890;BME280;4481;43.406;24.454;2022-10-22T04:39:08;78229.91;;;-144.09;96.65
8890;BME280;4481;43.406;24.454;2022-10-22T04:41:36;78219.44;;;-144.09;96.20
8890;BME280;4481;43.406;24.454;2022-10-22T04:44:03;78225.72;;;-144.09;96.80
8890;BME280;4481;43.406;24.454;2022-10-22T04:46:31;78209.00;;;-144.09;96.51
8890;BME280;4481;43.406;24.454;2022-10-22T04:48:58;78223.63;;;-144.09;97.52
8890;BME280;4481;43.406;24.454;2022-10-22T04:51:26;78209.00;;;-144.09;97.17
8890;BME280;4481;43.406;24.454;2022-10-22T04:53:53;78198.53;;;-144.09;97.07
8890;BME280;4481;43.406;24.454;2022-10-22T04:56:21;78171.38;;;-144.09;96.22
8890;BME280;4481;43.406;24.454;2022-10-22T04:58:50;78167.19;;;-144.09;96.24
8890;BME280;4481;43.406;24.454;2022-10-22T05:01:19;78169.28;;;-144.09;95.94
8890;BME280;4481;43.406;24.454;2022-10-22T05:03:47;78183.91;;;-144.09;96.22
8890;BME280;4481;43.406;24.454;2022-10-22T05:06:14;78175.53;;;-144.09;95.75
8890;BME280;4481;43.406;24.454;2022-10-22T05:08:41;78160.91;;;-144.09;95.33
8890;BME280;4481;43.406;24.454;2022-10-22T05:11:12;78154.63;;;-144.09;94.67
8890;BME280;4481;43.406;24.454;2022-10-22T05:13:38;78154.63;;;-144.09;94.10
8890;BME280;4481;43.406;24.454;2022-10-22T05:16:05;78160.91;;;-144.09;94.00
8890;BME280;4481;43.406;24.454;2022-10-22T05:18:33;78175.53;;;-144.09;93.65
8890;BME280;4481;43.406;24.454;2022-10-22T05:21:00;78165.09;;;-144.09;93.69
8890;BME280;4481;43.406;24.454;2022-10-22T05:23:27;78209.00;;;-144.09;94.53
8890;BME280;4481;43.406;24.454;2022-10-22T05:25:53;78213.19;;;-144.09;94.96
8890;BME280;4481;43.406;24.454;2022-10-22T05:28:19;78215.28;;;-144.09;94.65
8890;BME280;4481;43.406;24.454;2022-10-22T05:30:52;78269.63;;;-144.09;96.54
8890;BME280;4481;43.406;24.454;2022-10-22T05:33:18;78286.34;;;-144.09;97.04
8890;BME280;4481;43.406;24.454;2022-10-22T05:35:44;78296.81;;;-144.09;98.13
8890;BME280;4481;43.406;24.454;2022-10-22T05:38:10;78317.72;;;-144.09;98.46
8890;BME280;4481;43.406;24.454;2022-10-22T05:40:37;78300.97;;;-144.09;98.53
8890;BME280;4481;43.406;24.454;2022-10-22T05:43:03;78261.25;;;-144.09;97.75
8890;BME280;4481;43.406;24.454;2022-10-22T05:45:29;78244.53;;;-144.09;97.23
8890;BME280;4481;43.406;24.454;2022-10-22T05:47:55;78211.09;;;-144.09;96.58
8890;BME280;4481;43.406;24.454;2022-10-22T05:50:21;78198.53;;;-144.09;95.90
8890;BME280;4481;43.406;24.454;2022-10-22T05:52:48;78173.47;;;-144.09;94.94
8890;BME280;4481;43.406;24.454;2022-10-22T05:55:14;78167.19;;;-144.09;94.58
8890;BME280;4481;43.406;24.454;2022-10-22T05:57:41;78135.81;;;-144.09;94.10
8890;BME280;4481;43.406;24.454;2022-10-22T06:00:08;78102.38;;;-144.09;93.63
8890;BME280;4481;43.406;24.454;2022-10-22T06:02:34;78089.84;;;-144.09;93.37
8890;BME280;4481;43.406;24.454;2022-10-22T06:05:00;78064.75;;;-144.09;93.08
8890;BME280;4481;43.406;24.454;2022-10-22T06:07:26;78068.94;;;-144.09;92.80
8890;BME280;4481;43.406;24.454;2022-10-22T06:09:52;78073.09;;;-144.09;93.43
8890;BME280;4481;43.406;24.454;2022-10-22T06:12:19;78043.84;;;-144.09;93.02
8890;BME280;4481;43.406;24.454;2022-10-22T06:14:45;78022.94;;;-144.09;92.71
8890;BME280;4481;43.406;24.454;2022-10-22T06:17:12;78004.13;;;-144.09;92.33
8890;BME280;4481;43.406;24.454;2022-10-22T06:19:38;77981.13;;;-144.09;92.30
8890;BME280;4481;43.406;24.454;2022-10-22T06:22:04;77970.69;;;-144.09;91.59
8890;BME280;4481;43.406;24.454;2022-10-22T06:24:30;77956.03;;;-144.09;91.60
8890;BME280;4481;43.406;24.454;2022-10-22T06:26:56;77937.22;;;-144.09;91.12
8890;BME280;4481;43.406;24.454;2022-10-22T06:29:22;77916.31;;;-144.09;90.84
8890;BME280;4481;43.406;24.454;2022-10-22T06:31:49;77897.50;;;-144.09;90.57
8890;BME280;4481;43.406;24.454;2022-10-22T06:34:16;77882.88;;;-144.09;90.19
8890;BME280;4481;43.406;24.454;2022-10-22T06:36:43;77864.06;;;-144.09;89.79
8890;BME280;4481;43.406;24.454;2022-10-22T06:39:10;77851.53;;;-144.09;89.51
8890;BME280;4481;43.406;24.454;2022-10-22T06:41:37;77836.91;;;-144.09;89.22
8890;BME280;4481;43.406;24.454;2022-10-22T06:44:03;77820.16;;;-144.09;89.23
8890;BME280;4481;43.406;24.454;2022-10-22T06:46:29;77790.91;;;-144.09;88.77
8890;BME280;4481;43.406;24.454;2022-10-22T06:48:59;77772.09;;;-144.09;88.40
8890;BME280;4481;43.406;24.454;2022-10-22T06:51:26;77759.56;;;-144.09;88.50
8890;BME280;4481;43.406;24.454;2022-10-22T06:53:53;77747.00;;;-144.09;88.18
8890;BME280;4481;43.406;24.454;2022-10-22T06:56:20;77726.09;;;-144.09;88.11
8890;BME280;4481;43.406;24.454;2022-10-22T06:58:48;77732.38;;;-144.09;88.10
8890;BME280;4481;43.406;24.454;2022-10-22T07:01:15;77715.66;;;-144.09;87.68
8890;BME280;4481;43.406;24.454;2022-10-22T07:03:42;77709.38;;;-144.09;87.37
8890;BME280;4481;43.406;24.454;2022-10-22T07:06:10;77694.75;;;-144.09;87.06
8890;BME280;4481;43.406;24.454;2022-10-22T07:08:37;77705.22;;;-144.09;87.15
8890;BME280;4481;43.406;24.454;2022-10-22T07:11:05;77663.41;;;-144.09;86.55
8890;BME280;4481;43.406;24.454;2022-10-22T07:13:32;77638.31;;;-144.09;85.75
8890;BME280;4481;43.406;24.454;2022-10-22T07:15:58;77594.44;;;-144.09;85.18
8890;BME280;4481;43.406;24.454;2022-10-22T07:18:24;77577.69;;;-144.09;84.57
8890;BME280;4481;43.406;24.454;2022-10-22T07:20:50;77567.25;;;-144.09;84.65
8890;BME280;4481;43.406;24.454;2022-10-22T07:23:17;77556.81;;;-144.09;84.23
8890;BME280;4481;43.406;24.454;2022-10-22T07:25:43;77531.72;;;-144.09;83.77
8890;BME280;4481;43.406;24.454;2022-10-22T07:28:10;77506.63;;;-144.09;83.21
8890;BME280;4481;43.406;24.454;2022-10-22T07:30:37;77483.66;;;-144.09;82.55
8890;BME280;4481;43.406;24.454;2022-10-22T07:33:04;77487.81;;;-144.09;82.25
8890;BME280;4481;43.406;24.454;2022-10-22T07:35:30;77485.72;;;-144.09;82.27
8890;BME280;4481;43.406;24.454;2022-10-22T07:37:56;77456.47;;;-144.09;82.03
8890;BME280;4481;43.406;24.454;2022-10-22T07:40:23;77433.47;;;-144.09;81.04
8890;BME280;4481;43.406;24.454;2022-10-22T07:42:49;77416.75;;;-144.09;80.43
8890;BME280;4481;43.406;24.454;2022-10-22T07:45:16;77397.94;;;-144.09;80.13
8890;BME280;4481;43.406;24.454;2022-10-22T07:47:42;77393.78;;;-144.09;79.60
8890;BME280;4481;43.406;24.454;2022-10-22T07:50:08;77379.13;;;-144.09;79.63
8890;BME280;4481;43.406;24.454;2022-10-22T07:52:35;77381.22;;;-144.09;79.42
8890;BME280;4481;43.406;24.454;2022-10-22T07:55:01;77366.59;;;-144.09;78.90
8890;BME280;4481;43.406;24.454;2022-10-22T07:57:27;77333.16;;;-144.09;78.60
8890;BME280;4481;43.406;24.454;2022-10-22T07:59:54;77314.34;;;-144.09;78.30
8890;BME280;4481;43.406;24.454;2022-10-22T08:02:22;77301.81;;;-144.09;77.80
8890;BME280;4481;43.406;24.454;2022-10-22T08:04:48;77291.34;;;-144.09;77.48
8890;BME280;4481;43.406;24.454;2022-10-22T08:07:15;77280.91;;;-144.09;77.41
8890;BME280;4481;43.406;24.454;2022-10-22T08:09:41;77266.28;;;-144.09;77.38
8890;BME280;4481;43.406;24.454;2022-10-22T08:12:07;77247.47;;;-144.09;77.16
8890;BME280;4481;43.406;24.454;2022-10-22T08:14:34;77207.75;;;-144.09;76.58
8890;BME280;4481;43.406;24.454;2022-10-22T08:17:00;77188.94;;;-144.09;76.27
8890;BME280;4481;43.406;24.454;2022-10-22T08:19:26;77207.75;;;-144.09;76.38
8890;BME280;4481;43.406;24.454;2022-10-22T08:21:54;77174.31;;;-144.09;76.10
8890;BME280;4481;43.406;24.454;2022-10-22T08:24:20;77157.59;;;-144.09;75.49
8890;BME280;4481;43.406;24.454;2022-10-22T08:26:46;77115.81;;;-144.09;74.92
8890;BME280;4481;43.406;24.454;2022-10-22T08:29:12;77069.81;;;-144.09;73.94
8890;BME280;4481;43.406;24.454;2022-10-22T08:31:39;77053.09;;;-144.09;73.09
8890;BME280;4481;43.406;24.454;2022-10-22T08:34:05;77067.75;;;-144.09;72.22
8890;BME280;4481;43.406;24.454;2022-10-22T08:36:33;77055.19;;;-144.09;72.99
8890;BME280;4481;43.406;24.454;2022-10-22T08:38:59;77000.88;;;-144.09;71.84
8890;BME280;4481;43.406;24.454;2022-10-22T08:41:25;76973.69;;;-144.09;70.44
8890;BME280;4481;43.406;24.454;2022-10-22T08:44:18;76994.59;;;-144.09;70.20
8890;BME280;4481;43.406;24.454;2022-10-22T08:47:08;76977.88;;;-144.09;70.05
8890;BME280;4481;43.406;24.454;2022-10-22T08:49:41;76948.63;;;-144.09;69.83
8890;BME280;4481;43.406;24.454;2022-10-22T08:52:12;76927.72;;;-144.09;69.66
8890;BME280;4481;43.406;24.454;2022-10-22T08:54:47;76929.81;;;-144.09;68.48
8890;BME280;4481;43.406;24.454;2022-10-22T08:57:45;76942.34;;;-144.09;68.26
8890;BME280;4481;43.406;24.454;2022-10-22T09:00:19;76950.69;;;-144.09;68.87
8890;BME280;4481;43.406;24.454;2022-10-22T09:02:55;76925.63;;;-144.09;68.74
8890;BME280;4481;43.406;24.454;2022-10-22T09:05:37;76904.72;;;-144.09;67.84
8890;BME280;4481;43.406;24.454;2022-10-22T09:08:09;76902.63;;;-144.09;67.26
8890;BME280;4481;43.406;24.454;2022-10-22T09:10:37;76894.28;;;-144.09;66.83
8890;BME280;4481;43.406;24.454;2022-10-22T09:13:07;76873.38;;;-144.09;66.88
8890;BME280;4481;43.406;24.454;2022-10-22T09:15:34;76881.75;;;-144.09;67.29
8890;BME280;4481;43.406;24.454;2022-10-22T09:18:16;76827.41;;;-144.09;66.91
8890;BME280;4481;43.406;24.454;2022-10-22T09:20:50;76762.63;;;-144.09;65.35
8890;BME280;4481;43.406;24.454;2022-10-22T09:23:26;76722.94;;;-144.09;64.81
8890;BME280;4481;43.406;24.454;2022-10-22T09:25:55;76679.03;;;-144.09;63.72
8890;BME280;4481;43.406;24.454;2022-10-22T09:28:21;76695.75;;;-144.09;63.42
8890;BME280;4481;43.406;24.454;2022-10-22T09:30:48;76710.38;;;-144.09;63.07
8890;BME280;4481;43.406;24.454;2022-10-22T09:33:17;76691.56;;;-144.09;62.56
8890;BME280;4481;43.406;24.454;2022-10-22T09:35:46;76741.72;;;-144.09;63.54
8890;BME280;4481;43.406;24.454;2022-10-22T09:38:14;76741.72;;;-144.09;64.19
8890;BME280;4481;43.406;24.454;2022-10-22T09:40:45;76733.38;;;-144.09;63.27
8890;BME280;4481;43.406;24.454;2022-10-22T09:43:13;76741.72;;;-144.09;64.19
8890;BME280;4481;43.406;24.454;2022-10-22T09:45:39;76710.38;;;-144.09;63.27
8890;BME280;4481;43.406;24.454;2022-10-22T09:48:11;76695.75;;;-144.09;62.76
8890;BME280;4481;43.406;24.454;2022-10-22T09:50:43;76693.66;;;-144.09;62.51
8890;BME280;4481;43.406;24.454;2022-10-22T09:53:13;76695.75;;;-144.09;62.40
8890;BME280;4481;43.406;24.454;2022-10-22T09:55:49;76737.56;;;-144.09;63.07
8890;BME280;4481;43.406;24.454;2022-10-22T09:58:16;76756.34;;;-144.09;63.46
8890;BME280;4481;43.406;24.454;2022-10-22T10:00:46;76766.81;;;-144.09;63.54
8890;BME280;4481;43.406;24.454;2022-10-22T10:03:16;76773.06;;;-144.09;64.29
8890;BME280;4481;43.406;24.454;2022-10-22T10:05:46;76789.78;;;-144.09;65.37
8890;BME280;4481;43.406;24.454;2022-10-22T10:08:14;76804.44;;;-144.09;65.97
8890;BME280;4481;43.406;24.454;2022-10-22T10:10:45;76802.34;;;-144.09;65.69
8890;BME280;4481;43.406;24.454;2022-10-22T10:13:24;76802.34;;;-144.09;65.43
8890;BME280;4481;43.406;24.454;2022-10-22T10:15:56;76808.59;;;-144.09;65.84
8890;BME280;4481;43.406;24.454;2022-10-22T10:18:30;76810.69;;;-144.09;66.15
8890;BME280;4481;43.406;24.454;2022-10-22T10:21:05;76814.88;;;-144.09;66.09
8890;BME280;4481;43.406;24.454;2022-10-22T10:23:40;76789.78;;;-144.09;65.75
8890;BME280;4481;43.406;24.454;2022-10-22T10:26:14;76764.72;;;-144.09;65.06
8890;BME280;4481;43.406;24.454;2022-10-22T10:28:54;76729.19;;;-144.09;64.64
8890;BME280;4481;43.406;24.454;2022-10-22T10:31:37;76714.56;;;-144.09;64.34
8890;BME280;4481;43.406;24.454;2022-10-22T10:34:16;76695.75;;;-144.09;63.68
8890;BME280;4481;43.406;24.454;2022-10-22T10:36:55;76668.59;;;-144.09;63.06
8890;BME280;4481;43.406;24.454;2022-10-22T10:39:32;76666.50;;;-144.09;62.88
8890;BME280;4481;43.406;24.454;2022-10-22T10:42:09;76658.16;;;-144.09;62.08
8890;BME280;4481;43.406;24.454;2022-10-22T10:45:09;76653.97;;;-144.09;62.34
8890;BME280;4481;43.406;24.454;2022-10-22T10:47:59;76685.31;;;-144.09;61.88
8890;BME280;4481;43.406;24.454;2022-10-22T10:50:30;76649.78;;;-144.09;61.66
8890;BME280;4481;43.406;24.454;2022-10-22T10:53:07;76610.09;;;-144.09;61.44
8890;BME280;4481;43.406;24.454;2022-10-22T10:55:52;76599.63;;;-144.09;60.51
8890;BME280;4481;43.406;24.454;2022-10-22T10:58:24;76645.59;;;-144.09;61.49
8890;BME280;4481;43.406;24.454;2022-10-22T11:00:57;76685.31;;;-144.09;62.73
8890;BME280;4481;43.406;24.454;2022-10-22T11:06:15;76568.28;;;-144.09;59.96
8890;BME280;4481;43.406;24.454;2022-10-22T11:08:46;76555.75;;;-144.09;59.16
8890;BME280;4481;43.406;24.454;2022-10-22T11:11:22;76553.66;;;-144.09;59.24
8890;BME280;4481;43.406;24.454;2022-10-22T11:13:56;76539.03;;;-144.09;58.68
8890;BME280;4481;43.406;24.454;2022-10-22T11:16:27;76511.88;;;-144.09;58.13
8890;BME280;4481;43.406;24.454;2022-10-22T11:19:00;76499.34;;;-144.09;57.55
8890;BME280;4481;43.406;24.454;2022-10-22T11:21:33;76532.78;;;-144.09;58.69
8890;BME280;4481;43.406;24.454;2022-10-22T11:24:11;76495.16;;;-144.09;59.26
8890;BME280;4481;43.406;24.454;2022-10-22T11:26:44;76497.25;;;-144.09;57.45
8890;BME280;4481;43.406;24.454;2022-10-22T11:29:16;76497.25;;;-144.09;57.38
8890;BME280;4481;43.406;24.454;2022-10-22T11:31:44;76480.53;;;-144.09;57.52
8890;BME280;4481;43.406;24.454;2022-10-22T11:34:16;76484.72;;;-144.09;57.02
8890;BME280;4481;43.406;24.454;2022-10-22T11:36:44;76507.69;;;-144.09;58.04
8890;BME280;4481;43.406;24.454;2022-10-22T11:39:28;76522.31;;;-144.09;59.05
8890;BME280;4481;43.406;24.454;2022-10-22T11:41:57;76541.13;;;-144.09;59.03
8890;BME280;4481;43.406;24.454;2022-10-22T11:44:24;76511.88;;;-144.09;58.97
8890;BME280;4481;43.406;24.454;2022-10-22T11:46:54;76526.50;;;-144.09;59.54
8890;BME280;4481;43.406;24.454;2022-10-22T11:49:26;76497.25;;;-144.09;58.81
8890;BME280;4481;43.406;24.454;2022-10-22T11:52:20;76476.34;;;-144.09;57.55
8890;BME280;4481;43.406;24.454;2022-10-22T11:54:55;76459.63;;;-144.09;57.33
8890;BME280;4481;43.406;24.454;2022-10-22T11:57:27;76480.53;;;-144.09;57.21
8890;BME280;4481;43.406;24.454;2022-10-22T11:59:56;76442.91;;;-144.09;57.75
8890;BME280;4481;43.406;24.454;2022-10-22T12:02:30;76419.94;;;-144.09;57.57
8890;BME280;4481;43.406;24.454;2022-10-22T12:08:01;76359.34;;;-144.09;55.10
8890;BME280;4481;43.406;24.454;2022-10-22T12:10:33;76344.72;;;-144.09;53.36
8890;BME280;4481;43.406;24.454;2022-10-22T12:13:04;76338.44;;;-144.09;53.90
8890;BME280;4481;43.406;24.454;2022-10-22T12:15:45;76311.28;;;-144.09;54.24
8890;BME280;4481;43.406;24.454;2022-10-22T12:18:13;76315.47;;;-144.09;52.95
8890;BME280;4481;43.406;24.454;2022-10-22T12:20:40;76305.03;;;-144.09;52.93
8890;BME280;4481;43.406;24.454;2022-10-22T12:23:08;76342.63;;;-144.09;53.95
8890;BME280;4481;43.406;24.454;2022-10-22T12:25:37;76321.72;;;-144.09;54.42
8890;BME280;4481;43.406;24.454;2022-10-22T12:28:04;76344.72;;;-144.09;55.64
8890;BME280;4481;43.406;24.454;2022-10-22T12:30:32;76334.28;;;-144.09;54.39
8890;BME280;4481;43.406;24.454;2022-10-22T12:33:01;76384.41;;;-144.09;55.28
8890;BME280;4481;43.406;24.454;2022-10-22T12:35:29;76392.78;;;-144.09;56.95
8890;BME280;4481;43.406;24.454;2022-10-22T12:37:57;76388.59;;;-144.09;56.77
8890;BME280;4481;43.406;24.454;2022-10-22T12:40:26;76371.88;;;-144.09;56.71
8890;BME280;4481;43.406;24.454;2022-10-22T12:42:55;76369.78;;;-144.09;56.40
8890;BME280;4481;43.406;24.454;2022-10-22T12:45:23;76373.97;;;-144.09;55.08
8890;BME280;4481;43.406;24.454;2022-10-22T12:47:54;76409.50;;;-144.09;56.06
8890;BME280;4481;43.406;24.454;2022-10-22T12:50:24;76380.25;;;-144.09;56.80
8890;BME280;4481;43.406;24.454;2022-10-22T12:52:54;76392.78;;;-144.09;55.84
8890;BME280;4481;43.406;24.454;2022-10-22T12:55:22;76384.41;;;-144.09;55.86
8890;BME280;4481;43.406;24.454;2022-10-22T12:57:50;76365.63;;;-144.09;55.57
8890;BME280;4481;43.406;24.454;2022-10-22T13:00:23;76376.06;;;-144.09;53.91
8890;BME280;4481;43.406;24.454;2022-10-22T13:02:51;76359.34;;;-144.09;53.55
8890;BME280;4481;43.406;24.454;2022-10-22T13:05:22;76363.53;;;-144.09;54.11
8890;BME280;4481;43.406;24.454;2022-10-22T13:07:52;76357.25;;;-144.09;53.92